Time;durP1;ratioP1;P1;durP2;ratioP2;P2;SDS_P1;SDS_P2;PMS_P1;PMS_P2;Temp;Humidity;BMP_temperature;BMP_pressure;BME280_temperature;BME280_humidity;BME280_pressure;Samples;Min_cycle;Max_cycle;Signal;HPM_P1;HPM_P2
2023/06/19 00:02:04;;;;;;;10.13;7.05;;;24.60;49.40;;;;;;5021825;28;20091;-63
2023/06/19 00:04:30;;;;;;;11.65;7.03;;;24.60;49.60;;;;;;5048796;28;20037;-63
2023/06/19 00:06:55;;;;;;;9.10;6.80;;;24.60;49.70;;;;;;5034831;28;20025;-63
2023/06/19 00:09:21;;;;;;;10.40;6.32;;;24.60;50.50;;;;;;5048320;28;20105;-63
2023/06/19 00:11:47;;;;;;;9.90;7.22;;;24.60;49.80;;;;;;5028107;28;20030;-63
2023/06/19 00:14:13;;;;;;;10.52;6.95;;;24.60;49.90;;;;;;5045752;28;20094;-63
2023/06/19 00:16:40;;;;;;;10.50;7.15;;;24.60;50.10;;;;;;5032046;28;20110;-63
2023/06/19 00:19:05;;;;;;;9.02;6.60;;;24.50;50.80;;;;;;5044823;28;20056;-63
2023/06/19 00:21:31;;;;;;;8.73;6.43;;;24.60;50.20;;;;;;5014174;28;20436;-63
2023/06/19 00:23:57;;;;;;;8.90;6.53;;;24.50;50.40;;;;;;5031941;28;20378;-63
2023/06/19 00:26:23;;;;;;;8.85;6.45;;;24.50;50.60;;;;;;5023617;28;20062;-63
2023/06/19 00:28:49;;;;;;;8.35;5.90;;;24.50;50.60;;;;;;5033823;28;20051;-63
2023/06/19 00:31:16;;;;;;;9.63;6.32;;;24.50;50.70;;;;;;5032736;28;20117;-63
2023/06/19 00:33:43;;;;;;;8.80;6.15;;;24.50;50.80;;;;;;5037204;28;20029;-64
2023/06/19 00:36:14;;;;;;;8.63;6.13;;;24.50;50.90;;;;;;5045280;28;20416;-63
2023/06/19 00:38:39;;;;;;;8.88;6.10;;;24.50;51.10;;;;;;5032628;28;20057;-63
2023/06/19 00:41:05;;;;;;;9.48;5.70;;;24.50;51.20;;;;;;5040378;28;20040;-63
2023/06/19 00:43:32;;;;;;;8.85;5.93;;;24.50;52.00;;;;;;5022375;28;20112;-63
2023/06/19 00:45:58;;;;;;;10.18;5.95;;;24.50;51.40;;;;;;5051729;28;20041;-63
2023/06/19 00:48:26;;;;;;;9.27;5.72;;;24.50;51.60;;;;;;5029563;28;20070;-64
2023/06/19 00:50:51;;;;;;;9.20;6.15;;;24.50;51.80;;;;;;5035724;28;20035;-63
2023/06/19 00:53:18;;;;;;;10.73;5.90;;;24.50;51.90;;;;;;5028164;28;20385;-63
2023/06/19 00:55:46;;;;;;;9.77;5.88;;;24.50;52.00;;;;;;5042729;28;20021;-63
2023/06/19 00:58:12;;;;;;;9.38;6.00;;;24.50;52.10;;;;;;5033104;28;20413;-63
2023/06/19 01:00:38;;;;;;;10.10;5.70;;;24.50;52.20;;;;;;5048764;28;20032;-63
2023/06/19 01:03:03;;;;;;;9.93;5.60;;;24.50;52.30;;;;;;5026634;28;20030;-63
2023/06/19 01:05:29;;;;;;;7.78;5.20;;;24.50;52.90;;;;;;5031454;28;20021;-63
2023/06/19 01:08:10;;;;;;;9.68;5.22;;;24.50;52.30;;;;;;5023713;28;20026;-63
2023/06/19 01:10:49;;;;;;;8.82;5.50;;;24.60;52.40;;;;;;5045290;28;20099;-63
2023/06/19 01:13:38;;;;;;;9.82;6.43;;;24.50;52.40;;;;;;5030032;28;20025;-63
2023/06/19 01:16:05;;;;;;;9.35;5.80;;;24.50;52.40;;;;;;5024688;28;20042;-63
2023/06/19 01:18:34;;;;;;;8.73;5.57;;;24.50;52.40;;;;;;5019297;28;20474;-63
2023/06/19 01:21:14;;;;;;;10.52;5.90;;;24.50;52.40;;;;;;5046466;28;20021;-63
2023/06/19 01:23:40;;;;;;;9.52;5.30;;;24.50;52.40;;;;;;5048531;28;20326;-63
2023/06/19 01:26:10;;;;;;;10.50;5.95;;;24.50;52.50;;;;;;5033704;28;20024;-63
2023/06/19 01:28:41;;;;;;;8.38;5.65;;;24.50;52.50;;;;;;5036426;28;20033;-63
2023/06/19 01:31:15;;;;;;;9.48;5.72;;;24.50;52.50;;;;;;5031210;28;20033;-63
2023/06/19 01:33:43;;;;;;;8.48;4.82;;;24.50;52.60;;;;;;5030466;28;20025;-63
2023/06/19 01:36:10;;;;;;;8.43;4.97;;;24.40;52.50;;;;;;5041258;28;20113;-63
2023/06/19 01:38:36;;;;;;;8.65;5.00;;;24.40;52.50;;;;;;5043867;28;20025;-64
2023/06/19 01:41:03;;;;;;;7.70;4.97;;;24.50;52.50;;;;;;5051774;28;20029;-64
2023/06/19 01:43:31;;;;;;;9.82;5.28;;;24.40;52.40;;;;;;5028816;28;20026;-63
2023/06/19 01:45:57;;;;;;;7.65;4.40;;;24.40;52.40;;;;;;5035652;28;20061;-63
2023/06/19 01:48:23;;;;;;;7.85;4.65;;;24.40;52.50;;;;;;5031473;28;20181;-63
2023/06/19 01:50:50;;;;;;;8.23;4.80;;;24.40;52.50;;;;;;5035450;28;20125;-63
2023/06/19 01:53:17;;;;;;;8.52;4.60;;;24.40;52.60;;;;;;5028940;28;20025;-63
2023/06/19 01:55:45;;;;;;;8.65;4.63;;;24.30;52.60;;;;;;5021417;28;20030;-63
2023/06/19 01:58:11;;;;;;;8.25;4.78;;;24.30;52.70;;;;;;5022215;28;20037;-63
2023/06/19 02:00:37;;;;;;;8.05;4.50;;;24.30;52.80;;;;;;5035235;28;20032;-63
2023/06/19 02:03:04;;;;;;;7.60;4.47;;;24.20;52.80;;;;;;5034182;28;20115;-63
2023/06/19 02:05:34;;;;;;;7.25;4.15;;;24.20;52.90;;;;;;5035052;28;20022;-63
2023/06/19 02:08:00;;;;;;;;;;;24.20;53.10;;;;;;5023612;28;20021;-63
2023/06/19 02:10:26;;;;;;;8.93;4.57;;;24.20;53.00;;;;;;5031165;28;20000;-63
2023/06/19 02:12:52;;;;;;;7.68;4.47;;;24.10;53.10;;;;;;5032073;28;20013;-63
2023/06/19 02:15:18;;;;;;;8.35;4.47;;;24.10;53.30;;;;;;5033018;28;20021;-63
2023/06/19 02:17:44;;;;;;;7.40;3.97;;;24.10;53.40;;;;;;5030316;28;20066;-63
2023/06/19 02:20:11;;;;;;;8.18;4.22;;;24.10;53.60;;;;;;5030120;28;20417;-63
2023/06/19 02:22:41;;;;;;;8.63;4.45;;;24.00;53.70;;;;;;5035671;28;20454;-63
2023/06/19 02:25:07;;;;;;;8.73;4.72;;;24.00;53.90;;;;;;5033701;28;20112;-63
2023/06/19 02:27:33;;;;;;;7.70;4.25;;;24.00;54.00;;;;;;5027528;28;20038;-63
2023/06/19 02:29:59;;;;;;;7.25;3.97;;;24.00;54.20;;;;;;5016115;28;20035;-63
2023/06/19 02:32:25;;;;;;;8.95;4.55;;;23.90;54.30;;;;;;5033792;28;20083;-63
2023/06/19 02:34:51;;;;;;;7.35;3.78;;;23.90;54.50;;;;;;5035247;28;20087;-63
2023/06/19 02:37:17;;;;;;;7.50;4.10;;;23.80;54.60;;;;;;5050402;28;20132;-63
2023/06/19 02:39:42;;;;;;;6.97;3.85;;;23.80;54.80;;;;;;5032301;28;20029;-63
2023/06/19 02:42:08;;;;;;;7.43;4.10;;;23.70;55.00;;;;;;5041498;28;20369;-63
2023/06/19 02:44:34;;;;;;;7.72;4.30;;;23.80;55.30;;;;;;5036508;28;20026;-63
2023/06/19 02:47:00;;;;;;;7.00;3.80;;;23.70;55.40;;;;;;5052645;28;20430;-63
2023/06/19 02:49:25;;;;;;;7.18;3.72;;;23.70;55.60;;;;;;5026745;28;20021;-63
2023/06/19 02:51:51;;;;;;;8.05;3.63;;;23.60;55.80;;;;;;5030599;28;20120;-63
2023/06/19 02:54:17;;;;;;;7.63;3.95;;;23.60;56.10;;;;;;5027140;28;20029;-63
2023/06/19 02:56:44;;;;;;;7.63;4.10;;;23.60;56.20;;;;;;5032795;28;20025;-63
2023/06/19 02:59:10;;;;;;;6.78;3.65;;;23.50;56.40;;;;;;5032599;28;20108;-63
2023/06/19 03:01:36;;;;;;;6.78;3.55;;;23.50;56.60;;;;;;5032177;28;20395;-63
2023/06/19 03:04:01;;;;;;;6.82;3.20;;;23.50;56.80;;;;;;5030822;28;20465;-63
2023/06/19 03:06:27;;;;;;;6.72;2.97;;;23.40;57.10;;;;;;5033271;28;20149;-63
2023/06/19 03:08:53;;;;;;;6.05;3.35;;;23.40;57.30;;;;;;5031253;28;20030;-63
2023/06/19 03:11:19;;;;;;;6.32;3.00;;;23.40;57.60;;;;;;5030877;28;20021;-63
2023/06/19 03:13:51;;;;;;;6.10;2.70;;;23.40;57.80;;;;;;5028073;28;20022;-63
2023/06/19 03:16:20;;;;;;;5.80;3.05;;;23.40;58.00;;;;;;5031621;28;20064;-63
2023/06/19 03:18:47;;;;;;;5.72;2.92;;;23.40;58.10;;;;;;5028695;28;20045;-63
2023/06/19 03:21:16;;;;;;;5.30;2.35;;;23.30;58.20;;;;;;5004047;28;20033;-63
2023/06/19 03:23:44;;;;;;;5.95;2.85;;;23.30;58.30;;;;;;5014814;28;20030;-63
2023/06/19 03:26:10;;;;;;;4.97;2.60;;;23.30;58.40;;;;;;5029554;28;20024;-63
2023/06/19 03:28:39;;;;;;;5.72;2.85;;;23.30;58.60;;;;;;5024211;28;20091;-63
2023/06/19 03:31:07;;;;;;;6.35;2.60;;;23.30;58.70;;;;;;5013876;28;20021;-63
2023/06/19 03:33:33;;;;;;;5.60;2.85;;;23.20;58.80;;;;;;5031467;28;20151;-63
2023/06/19 03:36:00;;;;;;;5.90;2.70;;;23.20;58.90;;;;;;5014558;28;20431;-63
2023/06/19 03:38:36;;;;;;;6.72;3.08;;;23.20;59.00;;;;;;5039665;28;20031;-63
2023/06/19 03:41:02;;;;;;;5.75;2.75;;;23.20;59.10;;;;;;5032882;28;20033;-63
2023/06/19 03:43:28;;;;;;;5.93;2.78;;;23.10;59.20;;;;;;5033382;28;20121;-63
2023/06/19 03:45:54;;;;;;;7.35;2.95;;;23.10;59.30;;;;;;5024594;28;20029;-63
2023/06/19 03:48:20;;;;;;;6.30;3.05;;;23.10;59.50;;;;;;5034357;28;20419;-63
2023/06/19 03:50:45;;;;;;;5.65;2.72;;;23.10;59.60;;;;;;5036816;28;20086;-63
2023/06/19 03:53:11;;;;;;;6.22;2.70;;;23.10;59.60;;;;;;5028688;28;20343;-63
2023/06/19 03:55:37;;;;;;;6.65;2.60;;;23.10;59.70;;;;;;5029134;28;20034;-63
2023/06/19 03:58:03;;;;;;;6.53;2.80;;;23.10;59.70;;;;;;5043561;28;20116;-63
2023/06/19 04:00:29;;;;;;;6.18;2.33;;;23.10;59.80;;;;;;5030235;28;20111;-63
2023/06/19 04:02:56;;;;;;;5.30;2.60;;;23.10;59.80;;;;;;5034606;28;20083;-63
2023/06/19 04:05:22;;;;;;;5.90;2.75;;;23.20;59.90;;;;;;5035029;28;20036;-63
2023/06/19 04:07:48;;;;;;;5.90;2.90;;;23.10;59.90;;;;;;5041287;28;20091;-63
2023/06/19 04:10:14;;;;;;;7.20;2.67;;;23.10;60.10;;;;;;5038638;28;20022;-63
2023/06/19 04:12:40;;;;;;;6.13;2.67;;;23.10;60.10;;;;;;5046834;28;20029;-63
2023/06/19 04:15:07;;;;;;;7.15;3.10;;;23.10;60.20;;;;;;5025455;28;20451;-63
2023/06/19 04:17:33;;;;;;;5.65;2.63;;;23.10;60.30;;;;;;5024810;28;20042;-63
2023/06/19 04:20:00;;;;;;;6.32;2.60;;;23.10;60.50;;;;;;5029202;28;20033;-62
2023/06/19 04:22:26;;;;;;;7.60;2.85;;;23.10;60.50;;;;;;5031324;28;20026;-63
2023/06/19 04:24:51;;;;;;;7.93;2.70;;;23.10;60.50;;;;;;5027570;28;20419;-63
2023/06/19 04:27:17;;;;;;;6.28;3.25;;;23.10;60.60;;;;;;5026918;28;20386;-63
2023/06/19 04:29:44;;;;;;;6.30;3.10;;;23.10;60.70;;;;;;5014302;28;20072;-63
2023/06/19 04:32:13;;;;;;;6.93;2.63;;;23.10;60.80;;;;;;5020223;28;20026;-64
2023/06/19 04:34:39;;;;;;;5.65;2.47;;;23.10;60.90;;;;;;5026263;28;20025;-63
2023/06/19 04:37:05;;;;;;;5.90;2.67;;;23.10;61.00;;;;;;5031847;28;20090;-63
2023/06/19 04:39:31;;;;;;;6.85;3.25;;;23.10;61.00;;;;;;5028782;28;20026;-63
2023/06/19 04:41:56;;;;;;;6.88;3.00;;;23.20;61.10;;;;;;5035837;28;20327;-63
2023/06/19 04:44:22;;;;;;;6.03;2.83;;;23.20;61.20;;;;;;5027764;28;20403;-63
2023/06/19 04:46:48;;;;;;;5.60;2.83;;;23.10;62.00;;;;;;5033324;28;20174;-63
2023/06/19 04:49:14;;;;;;;6.38;2.85;;;23.10;61.40;;;;;;5040938;28;20052;-63
2023/06/19 04:51:40;;;;;;;6.22;3.40;;;23.20;61.60;;;;;;5032465;28;20115;-63
2023/06/19 04:54:06;;;;;;;6.30;2.70;;;23.20;61.70;;;;;;5036013;28;20041;-63
2023/06/19 04:56:32;;;;;;;5.82;2.90;;;23.20;61.80;;;;;;5027821;28;20030;-63
2023/06/19 04:58:59;;;;;;;9.88;3.47;;;23.20;61.90;;;;;;5038627;28;20040;-63
2023/06/19 05:01:30;;;;;;;6.18;2.75;;;23.20;61.90;;;;;;5030402;28;20029;-62
2023/06/19 05:03:56;;;;;;;6.25;2.97;;;23.20;62.00;;;;;;5032330;28;20465;-63
2023/06/19 05:06:23;;;;;;;6.75;3.10;;;23.20;62.10;;;;;;5029539;28;20029;-62
2023/06/19 05:08:49;;;;;;;6.10;2.85;;;23.20;62.20;;;;;;5032629;28;20457;-63
2023/06/19 05:11:14;;;;;;;5.63;2.90;;;23.20;62.40;;;;;;5037847;28;20083;-63
2023/06/19 05:13:40;;;;;;;7.40;3.35;;;23.20;62.60;;;;;;5033528;28;20300;-63
2023/06/19 05:16:06;;;;;;;7.45;3.03;;;23.10;62.70;;;;;;5038956;28;20025;-63
2023/06/19 05:18:32;;;;;;;6.13;3.20;;;23.10;62.90;;;;;;5048326;28;20044;-63
2023/06/19 05:20:57;;;;;;;6.47;3.50;;;23.10;63.00;;;;;;5057289;28;20109;-63
2023/06/19 05:23:23;;;;;;;9.77;3.65;;;23.10;63.10;;;;;;5055931;28;20013;-63
2023/06/19 05:25:49;;;;;;;7.57;4.32;;;23.00;63.20;;;;;;5054273;28;20037;-63
2023/06/19 05:28:15;;;;;;;7.90;3.40;;;23.00;63.50;;;;;;5037533;28;20170;-63
2023/06/19 05:30:40;;;;;;;9.07;3.95;;;23.00;63.70;;;;;;5056028;28;20060;-63
2023/06/19 05:33:06;;;;;;;5.97;2.97;;;23.00;63.90;;;;;;5040405;28;20083;-63
2023/06/19 05:35:32;;;;;;;7.50;3.88;;;23.00;64.00;;;;;;5037510;28;20051;-63
2023/06/19 05:37:58;;;;;;;6.53;3.13;;;22.90;64.30;;;;;;5031743;28;20029;-63
2023/06/19 05:40:23;;;;;;;8.15;3.72;;;22.90;64.70;;;;;;5032075;28;20113;-63
2023/06/19 05:42:49;;;;;;;8.00;3.30;;;22.90;64.90;;;;;;5022203;28;20104;-63
2023/06/19 05:45:15;;;;;;;7.68;3.83;;;23.00;65.10;;;;;;5039084;28;20021;-63
2023/06/19 05:47:41;;;;;;;7.88;3.67;;;23.00;65.10;;;;;;5044189;28;20406;-63
2023/06/19 05:50:07;;;;;;;7.82;3.65;;;23.00;65.10;;;;;;5035148;28;20037;-63
2023/06/19 05:52:33;;;;;;;6.97;3.55;;;23.00;65.00;;;;;;5035785;28;20029;-63
2023/06/19 05:54:59;;;;;;;9.05;3.97;;;23.10;65.00;;;;;;5018095;28;20039;-63
2023/06/19 05:57:24;;;;;;;9.77;4.68;;;23.10;64.90;;;;;;5018103;28;20109;-63
2023/06/19 05:59:50;;;;;;;7.90;3.83;;;23.10;64.90;;;;;;5030829;28;20037;-64
2023/06/19 06:02:20;;;;;;;7.93;3.88;;;23.20;64.90;;;;;;5030652;28;20045;-64
2023/06/19 06:04:46;;;;;;;7.63;4.35;;;23.20;64.80;;;;;;5032989;28;20034;-64
2023/06/19 06:07:13;;;;;;;6.85;4.03;;;23.20;64.70;;;;;;5031684;28;20098;-64
2023/06/19 06:09:39;;;;;;;8.38;4.70;;;23.30;64.80;;;;;;5026570;28;20118;-64
2023/06/19 06:12:05;;;;;;;7.57;4.40;;;23.30;64.70;;;;;;5028575;28;20033;-63
2023/06/19 06:14:31;;;;;;;8.00;4.95;;;23.30;64.60;;;;;;5027964;28;20041;-63
2023/06/19 06:16:57;;;;;;;9.23;5.57;;;23.30;64.60;;;;;;5020169;28;20026;-63
2023/06/19 06:19:23;;;;;;;7.63;4.97;;;23.30;64.60;;;;;;5034939;28;20396;-63
2023/06/19 06:21:49;;;;;;;8.93;5.07;;;23.30;64.60;;;;;;5034578;28;20040;-63
2023/06/19 06:24:15;;;;;;;8.52;5.40;;;23.30;64.50;;;;;;5046311;28;20042;-63
2023/06/19 06:26:41;;;;;;;8.43;5.18;;;23.30;64.60;;;;;;5027026;28;20141;-63
2023/06/19 06:29:07;;;;;;;9.02;5.00;;;23.30;64.60;;;;;;5037021;28;20033;-63
2023/06/19 06:31:34;;;;;;;8.48;5.28;;;23.30;64.60;;;;;;5038929;28;20362;-63
2023/06/19 06:34:00;;;;;;;8.57;5.00;;;23.30;64.60;;;;;;5038878;28;20029;-64
2023/06/19 06:36:25;;;;;;;9.20;5.68;;;23.30;64.70;;;;;;5041534;28;20071;-63
2023/06/19 06:38:51;;;;;;;8.32;5.13;;;23.30;64.70;;;;;;5052079;28;20399;-63
2023/06/19 06:41:17;;;;;;;8.57;5.65;;;23.30;64.80;;;;;;5043980;28;20038;-64
2023/06/19 06:43:43;;;;;;;8.40;5.35;;;23.20;64.80;;;;;;5053905;28;20033;-63
2023/06/19 06:46:10;;;;;;;8.38;5.15;;;23.20;65.00;;;;;;5052564;28;20036;-63
2023/06/19 06:48:36;;;;;;;9.43;5.18;;;23.20;65.10;;;;;;5037658;28;20094;-63
2023/06/19 06:51:02;;;;;;;8.20;5.57;;;23.20;65.20;;;;;;5026772;28;20029;-63
2023/06/19 06:53:28;;;;;;;9.07;4.97;;;23.20;65.30;;;;;;5033769;28;20104;-63
2023/06/19 06:55:55;;;;;;;9.00;5.03;;;23.20;65.40;;;;;;5033702;28;20101;-63
2023/06/19 06:58:22;;;;;;;9.50;5.28;;;23.20;65.30;;;;;;5043354;28;20035;-63
2023/06/19 07:00:48;;;;;;;9.23;5.80;;;23.20;65.30;;;;;;5039748;28;20099;-63
2023/06/19 07:03:14;;;;;;;9.73;5.78;;;23.20;65.40;;;;;;5018274;28;20048;-63
2023/06/19 07:05:40;;;;;;;7.50;4.95;;;23.20;65.40;;;;;;5031962;28;20017;-63
2023/06/19 07:08:05;;;;;;;7.80;4.90;;;23.20;65.40;;;;;;5040971;28;20083;-63
2023/06/19 07:10:31;;;;;;;9.10;5.65;;;23.20;65.40;;;;;;5052808;28;20480;-63
2023/06/19 07:12:57;;;;;;;8.10;4.90;;;23.20;65.30;;;;;;5028865;28;20029;-63
2023/06/19 07:15:23;;;;;;;7.90;5.47;;;23.20;65.30;;;;;;5025237;28;20037;-64
2023/06/19 07:17:48;;;;;;;8.90;5.00;;;23.20;65.20;;;;;;5031836;28;20053;-63
2023/06/19 07:20:15;;;;;;;8.07;4.75;;;23.20;65.00;;;;;;5027339;28;20029;-63
2023/06/19 07:22:42;;;;;;;8.05;4.78;;;23.20;64.70;;;;;;5033944;28;20064;-63
2023/06/19 07:25:10;;;;;;;8.38;5.05;;;23.30;64.50;;;;;;5034011;28;20356;-63
2023/06/19 07:27:35;;;;;;;7.82;4.50;;;23.40;64.10;;;;;;5032316;28;20354;-63
2023/06/19 07:30:01;;;;;;;7.38;4.47;;;23.40;63.60;;;;;;5034976;28;20029;-63
2023/06/19 07:32:27;;;;;;;7.50;4.60;;;23.50;63.30;;;;;;5035184;28;20075;-63
2023/06/19 07:34:53;;;;;;;8.05;4.60;;;23.60;62.90;;;;;;5050054;28;20474;-63
2023/06/19 07:37:20;;;;;;;7.80;4.25;;;23.90;62.10;;;;;;5017254;28;20029;-63
2023/06/19 07:39:49;;;;;;;6.60;4.10;;;24.20;61.10;;;;;;5049568;28;20067;-63
2023/06/19 07:42:16;;;;;;;8.52;4.65;;;24.60;60.10;;;;;;5054683;28;20021;-63
2023/06/19 07:44:43;;;;;;;7.85;4.47;;;25.00;59.20;;;;;;5054606;28;20040;-63
2023/06/19 07:47:09;;;;;;;7.95;4.28;;;25.30;58.40;;;;;;5044875;28;20035;-63
2023/06/19 07:49:36;;;;;;;7.57;4.75;;;25.60;57.60;;;;;;5046082;28;20032;-63
2023/06/19 07:52:03;;;;;;;8.88;4.95;;;25.60;57.10;;;;;;5053479;28;20444;-63
2023/06/19 07:54:28;;;;;;;9.07;5.22;;;25.40;56.90;;;;;;5054145;28;20023;-63
2023/06/19 07:56:54;;;;;;;9.32;5.22;;;25.30;56.80;;;;;;5038172;28;20340;-63
2023/06/19 07:59:20;;;;;;;8.80;5.75;;;25.30;56.50;;;;;;5029181;28;20029;-63
2023/06/19 08:01:46;;;;;;;8.77;5.68;;;25.60;56.20;;;;;;5034254;28;20026;-63
2023/06/19 08:04:11;;;;;;;11.45;6.57;;;25.80;55.60;;;;;;5042791;28;20036;-64
2023/06/19 08:06:37;;;;;;;9.27;6.80;;;25.70;55.20;;;;;;5051937;28;20032;-63
2023/06/19 08:09:03;;;;;;;8.48;6.00;;;25.50;55.10;;;;;;5036089;28;20032;-64
2023/06/19 08:11:29;;;;;;;8.30;5.90;;;25.50;55.10;;;;;;5035164;28;20018;-63
2023/06/19 08:13:55;;;;;;;9.30;6.97;;;25.40;54.90;;;;;;5041688;28;20356;-63
2023/06/19 08:16:21;;;;;;;9.43;6.90;;;25.30;55.00;;;;;;5054292;28;20457;-63
2023/06/19 08:18:47;;;;;;;10.80;7.65;;;25.30;55.30;;;;;;5043658;28;20120;-63
2023/06/19 08:21:13;;;;;;;10.15;6.90;;;25.10;55.20;;;;;;5022523;28;20047;-63
2023/06/19 08:23:43;;;;;;;9.45;6.60;;;25.10;55.40;;;;;;5042784;28;20041;-64
2023/06/19 08:26:11;;;;;;;10.30;7.23;;;25.10;55.10;;;;;;5025693;28;20037;-64
2023/06/19 08:28:38;;;;;;;9.82;5.85;;;25.30;54.70;;;;;;5037856;28;20034;-64
2023/06/19 08:31:03;;;;;;;9.30;6.60;;;25.50;54.30;;;;;;5035035;28;20484;-64
2023/06/19 08:33:29;;;;;;;9.85;6.97;;;25.70;53.90;;;;;;5024859;28;20061;-64
2023/06/19 08:35:55;;;;;;;9.95;7.30;;;25.70;53.70;;;;;;5044237;28;20406;-64
2023/06/19 08:38:21;;;;;;;9.18;6.90;;;25.70;53.80;;;;;;5049460;28;20026;-64
2023/06/19 08:40:46;;;;;;;10.27;6.82;;;25.60;53.70;;;;;;5030378;28;20026;-64
2023/06/19 08:43:12;;;;;;;9.85;6.95;;;25.60;53.80;;;;;;5031771;28;20029;-64
2023/06/19 08:45:39;;;;;;;10.55;7.45;;;25.60;53.70;;;;;;5032070;28;20089;-64
2023/06/19 08:48:05;;;;;;;8.65;5.97;;;25.70;53.60;;;;;;5045877;28;20464;-64
2023/06/19 08:50:37;;;;;;;9.98;6.57;;;25.70;53.50;;;;;;5023174;28;20371;-64
2023/06/19 08:53:03;;;;;;;8.57;6.13;;;25.70;53.60;;;;;;5028316;28;20113;-63
2023/06/19 08:55:29;;;;;;;9.65;7.20;;;25.80;53.70;;;;;;5029786;28;20021;-63
2023/06/19 08:57:55;;;;;;;10.88;7.50;;;25.90;54.00;;;;;;5033625;28;20026;-64
2023/06/19 09:00:26;;;;;;;10.07;7.32;;;26.10;53.30;;;;;;5031569;28;20040;-65
2023/06/19 09:02:52;;;;;;;11.02;6.78;;;26.30;53.00;;;;;;5034383;28;20435;-64
2023/06/19 09:05:19;;;;;;;8.95;6.20;;;26.50;52.80;;;;;;5033361;28;20107;-64
2023/06/19 09:07:55;;;;;;;11.70;7.32;;;26.70;52.50;;;;;;5032888;28;20029;-64
2023/06/19 09:10:21;;;;;;;11.32;8.07;;;26.80;52.20;;;;;;5033896;28;20041;-64
2023/06/19 09:13:02;;;;;;;10.18;7.25;;;26.90;52.20;;;;;;5015943;28;20017;-64
2023/06/19 09:15:32;;;;;;;12.73;7.35;;;26.90;52.10;;;;;;5025590;28;20369;-64
2023/06/19 09:18:10;;;;;;;11.20;6.97;;;26.80;52.30;;;;;;5016957;28;20038;-64
2023/06/19 09:20:47;;;;;;;10.52;7.20;;;26.60;52.30;;;;;;5033809;28;20451;-64
2023/06/19 09:23:14;;;;;;;10.15;7.30;;;26.50;52.50;;;;;;5032657;28;20061;-63
2023/06/19 09:25:57;;;;;;;10.05;7.35;;;26.50;52.70;;;;;;5030485;28;20026;-64
2023/06/19 09:28:27;;;;;;;10.05;7.45;;;26.40;52.90;;;;;;5020133;28;20040;-64
2023/06/19 09:30:59;;;;;;;10.13;7.20;;;26.30;52.90;;;;;;5033553;28;20033;-64
2023/06/19 09:33:30;;;;;;;11.77;7.82;;;26.40;53.00;;;;;;5037891;28;20028;-64
2023/06/19 09:35:57;;;;;;;;;;;26.50;52.80;;;;;;5035179;28;20030;-64
2023/06/19 09:38:28;;;;;;;12.13;7.35;;;26.60;52.60;;;;;;5051012;28;19916;-64
2023/06/19 09:40:54;;;;;;;;;;;26.80;52.40;;;;;;5056493;28;20114;-64
2023/06/19 09:43:36;;;;;;;10.38;6.75;;;27.00;52.10;;;;;;5056870;28;19916;-64
2023/06/19 09:46:04;;;;;;;9.55;6.95;;;27.20;51.80;;;;;;5040962;28;20041;-64
2023/06/19 09:48:34;;;;;;;10.77;8.20;;;27.40;51.50;;;;;;5052989;28;20350;-64
2023/06/19 09:51:03;;;;;;;10.93;7.68;;;27.30;51.00;;;;;;5055679;28;20040;-64
2023/06/19 09:53:30;;;;;;;11.27;7.72;;;27.20;51.10;;;;;;5049762;28;20025;-64
2023/06/19 09:55:56;;;;;;;10.75;7.82;;;27.30;50.90;;;;;;5042934;28;20033;-64
2023/06/19 09:58:22;;;;;;;10.02;7.70;;;27.20;51.00;;;;;;5056435;28;20131;-64
2023/06/19 10:00:50;;;;;;;9.70;7.00;;;27.20;51.10;;;;;;5055296;28;20126;-64
2023/06/19 10:03:16;;;;;;;9.60;7.18;;;27.40;51.00;;;;;;5052931;28;20032;-64
2023/06/19 10:05:43;;;;;;;10.40;7.38;;;27.60;50.80;;;;;;5042719;28;20032;-64
2023/06/19 10:08:09;;;;;;;11.48;8.18;;;27.60;50.60;;;;;;5056238;28;20127;-64
2023/06/19 10:10:36;;;;;;;13.02;7.00;;;27.80;50.30;;;;;;5056178;28;20111;-64
2023/06/19 10:13:16;;;;;;;9.00;6.78;;;27.90;50.20;;;;;;5056548;28;20107;-64
2023/06/19 10:15:44;;;;;;;10.20;7.22;;;28.20;49.80;;;;;;5043141;28;20088;-64
2023/06/19 10:18:18;;;;;;;10.02;7.22;;;28.20;49.60;;;;;;5055978;28;20378;-64
2023/06/19 10:20:45;;;;;;;10.45;7.88;;;28.30;49.30;;;;;;5056383;28;20083;-64
2023/06/19 10:23:20;;;;;;;10.93;8.20;;;28.50;49.00;;;;;;5056086;28;20319;-64
2023/06/19 10:25:49;;;;;;;9.38;7.32;;;28.50;48.70;;;;;;5038645;28;20025;-64
2023/06/19 10:28:23;;;;;;;9.93;7.32;;;28.30;48.90;;;;;;5054926;28;20040;-64
2023/06/19 10:31:08;;;;;;;10.35;6.90;;;28.30;49.00;;;;;;5056153;28;20033;-64
2023/06/19 10:33:37;;;;;;;9.88;7.65;;;28.40;48.90;;;;;;5041651;28;20450;-64
2023/06/19 10:36:25;;;;;;;10.45;8.38;;;28.50;48.80;;;;;;5055967;28;20094;-64
2023/06/19 10:38:52;;;;;;;11.23;7.70;;;28.40;48.70;;;;;;5029815;28;20112;-64
2023/06/19 10:41:22;;;;;;;12.10;8.40;;;28.40;48.70;;;;;;5055954;28;20025;-64
2023/06/19 10:44:06;;;;;;;12.02;8.52;;;28.50;48.60;;;;;;5055666;28;20033;-64
2023/06/19 10:46:36;;;;;;;10.27;8.02;;;28.50;48.40;;;;;;5052717;28;20025;-64
2023/06/19 10:49:04;;;;;;;11.07;8.40;;;28.60;48.30;;;;;;5034740;28;20037;-64
2023/06/19 10:51:31;;;;;;;10.02;7.35;;;28.80;48.10;;;;;;5054900;28;20029;-66
2023/06/19 10:53:57;;;;;;;12.20;8.50;;;28.90;48.00;;;;;;5054650;28;20303;-64
2023/06/19 10:56:24;;;;;;;12.07;8.82;;;29.00;47.80;;;;;;5055524;28;20057;-64
2023/06/19 10:59:11;;;;;;;11.40;8.68;;;28.90;47.60;;;;;;5034903;28;20116;-64
2023/06/19 11:01:45;;;;;;;12.60;9.60;;;28.90;47.70;;;;;;5055799;28;20108;-66
2023/06/19 11:04:13;;;;;;;11.93;8.88;;;28.90;47.40;;;;;;5054209;28;20033;-65
2023/06/19 11:06:40;;;;;;;11.45;9.48;;;28.90;47.50;;;;;;5055261;28;20117;-64
2023/06/19 11:09:07;;;;;;;11.57;8.95;;;28.80;47.50;;;;;;5032872;28;20029;-64
2023/06/19 11:11:47;;;;;;;11.85;9.88;;;28.90;47.60;;;;;;5055001;28;20450;-64
2023/06/19 11:14:15;;;;;;;15.00;9.45;;;28.90;47.40;;;;;;5033205;28;20037;-64
2023/06/19 11:16:46;;;;;;;14.73;11.00;;;28.80;47.50;;;;;;5033914;28;20028;-65
2023/06/19 11:19:17;;;;;;;12.40;9.77;;;28.90;47.40;;;;;;5036707;28;20048;-65
2023/06/19 11:21:50;;;;;;;10.68;8.23;;;28.90;47.20;;;;;;5041603;28;20037;-65
2023/06/19 11:24:16;;;;;;;11.88;8.73;;;29.00;47.20;;;;;;5034150;28;20120;-65
2023/06/19 11:26:49;;;;;;;12.13;8.73;;;29.10;47.00;;;;;;5040006;28;20057;-64
2023/06/19 11:29:20;;;;;;;10.82;7.70;;;29.10;46.80;;;;;;5032346;28;20037;-64
2023/06/19 11:31:47;;;;;;;9.57;7.22;;;29.10;46.80;;;;;;5030160;28;20025;-65
2023/06/19 11:34:14;;;;;;;11.57;8.68;;;29.10;46.80;;;;;;5035835;28;20030;-64
2023/06/19 11:36:42;;;;;;;13.50;9.57;;;29.10;46.60;;;;;;5050626;28;20032;-65
2023/06/19 11:39:13;;;;;;;11.30;9.27;;;29.10;46.60;;;;;;5019582;28;20029;-65
2023/06/19 11:41:40;;;;;;;10.02;8.05;;;29.00;46.40;;;;;;5044155;28;20115;-66
2023/06/19 11:44:09;;;;;;;10.02;7.50;;;28.90;46.40;;;;;;5040740;28;20151;-65
2023/06/19 11:46:36;;;;;;;12.80;9.23;;;29.10;46.50;;;;;;5022571;28;20026;-65
2023/06/19 11:49:19;;;;;;;13.52;8.18;;;29.20;46.20;;;;;;5046839;28;20040;-65
2023/06/19 11:51:46;;;;;;;11.55;8.77;;;29.30;46.10;;;;;;5053111;28;20032;-65
2023/06/19 11:54:20;;;;;;;12.10;7.57;;;29.30;45.90;;;;;;5031927;28;20031;-66
2023/06/19 11:56:47;;;;;;;9.98;7.93;;;29.30;45.80;;;;;;5048801;28;20020;-66
2023/06/19 11:59:15;;;;;;;10.60;8.10;;;29.20;46.40;;;;;;5043011;28;20082;-66
2023/06/19 12:01:40;;;;;;;12.02;9.20;;;29.10;45.60;;;;;;5053962;28;20044;-67
2023/06/19 12:04:06;;;;;;;12.18;7.80;;;29.10;45.60;;;;;;5038534;28;20063;-65
2023/06/19 12:06:35;;;;;;;10.10;7.60;;;28.90;45.70;;;;;;5044098;28;20032;-66
2023/06/19 12:09:01;;;;;;;10.82;6.55;;;28.80;45.80;;;;;;5045093;28;20054;-67
2023/06/19 12:11:27;;;;;;;10.88;7.55;;;28.90;45.90;;;;;;5024958;28;20036;-65
2023/06/19 12:13:57;;;;;;;10.45;7.53;;;28.90;45.70;;;;;;5028618;28;20021;-65
2023/06/19 12:16:23;;;;;;;10.05;6.78;;;28.90;45.40;;;;;;5025630;28;20049;-65
2023/06/19 12:18:49;;;;;;;10.57;7.13;;;28.90;45.30;;;;;;5022538;28;20505;-65
2023/06/19 12:21:16;;;;;;;9.07;5.97;;;28.90;45.20;;;;;;5027879;28;20525;-65
2023/06/19 12:23:42;;;;;;;8.63;6.40;;;28.90;45.10;;;;;;5032214;28;20037;-67
2023/06/19 12:26:08;;;;;;;10.10;6.78;;;28.90;45.10;;;;;;5027749;28;20116;-66
2023/06/19 12:28:33;;;;;;;8.23;5.85;;;28.90;44.80;;;;;;5024225;28;20108;-64
2023/06/19 12:31:00;;;;;;;9.80;5.53;;;28.80;44.50;;;;;;5028411;28;20022;-64
2023/06/19 12:33:26;;;;;;;8.63;5.25;;;28.80;44.40;;;;;;5031890;28;20083;-63
2023/06/19 12:35:52;;;;;;;9.88;6.70;;;28.70;44.10;;;;;;5031328;28;20039;-64
2023/06/19 12:38:18;;;;;;;10.10;6.60;;;28.70;43.90;;;;;;5034875;28;20030;-66
2023/06/19 12:40:43;;;;;;;9.98;6.13;;;28.70;44.00;;;;;;5041461;28;20224;-68
2023/06/19 12:43:09;;;;;;;9.80;7.00;;;28.60;44.00;;;;;;5037731;28;20057;-65
2023/06/19 12:45:35;;;;;;;9.98;6.05;;;28.60;44.10;;;;;;5039301;28;20028;-66
2023/06/19 12:48:01;;;;;;;9.20;6.22;;;28.60;44.40;;;;;;5044161;28;20040;-64